Time;durP1;ratioP1;P1;durP2;ratioP2;P2;SDS_P1;SDS_P2;PMS_P1;PMS_P2;Temp;Humidity;BMP_temperature;BMP_pressure;BME280_temperature;BME280_humidity;BME280_pressure;Samples;Min_cycle;Max_cycle;Signal;HPM_P1;HPM_P2
2022/09/17 00:00:50;;;;;;;2.28;1.30;;;12.30;99.90;;;;;;5051566;28;20392;-64
2022/09/17 00:03:16;;;;;;;2.13;1.45;;;12.20;99.90;;;;;;5034907;28;20067;-64
2022/09/17 00:05:42;;;;;;;5.32;1.85;;;12.20;99.90;;;;;;5051763;28;20492;-64
2022/09/17 00:08:13;;;;;;;5.03;1.38;;;12.30;99.90;;;;;;5053707;28;20037;-64
2022/09/17 00:10:41;;;;;;;1.48;1.13;;;12.30;99.90;;;;;;5053600;28;20385;-64
2022/09/17 00:13:08;;;;;;;4.38;1.40;;;12.10;99.90;;;;;;5052315;28;20484;-64
2022/09/17 00:15:42;;;;;;;2.53;1.17;;;12.20;99.90;;;;;;5051422;28;20135;-64
2022/09/17 00:18:08;;;;;;;1.98;1.25;;;12.20;99.90;;;;;;5052734;28;20044;-64
2022/09/17 00:20:46;;;;;;;4.20;1.13;;;12.00;99.90;;;;;;5052874;28;20436;-64
2022/09/17 00:23:13;;;;;;;5.57;1.30;;;11.90;99.90;;;;;;5052614;28;20037;-64
2022/09/17 00:25:41;;;;;;;2.47;1.42;;;12.00;99.90;;;;;;5052596;28;20049;-64
2022/09/17 00:28:11;;;;;;;4.32;1.20;;;11.90;99.90;;;;;;5052424;28;20114;-64
2022/09/17 00:30:45;;;;;;;1.65;1.10;;;11.80;99.90;;;;;;5051135;28;20036;-64
2022/09/17 00:33:13;;;;;;;2.25;1.33;;;11.80;99.90;;;;;;5052935;28;20044;-64
2022/09/17 00:35:39;;;;;;;5.38;1.45;;;11.80;99.90;;;;;;5054362;28;20033;-63
2022/09/17 00:38:05;;;;;;;2.35;1.17;;;12.00;99.90;;;;;;5052753;28;20079;-64
2022/09/17 00:40:32;;;;;;;3.38;1.33;;;12.10;99.90;;;;;;5052431;28;20094;-64
2022/09/17 00:42:58;;;;;;;4.20;1.92;;;12.10;99.90;;;;;;5053544;28;20489;-64
2022/09/17 00:45:24;;;;;;;4.40;1.48;;;12.20;99.90;;;;;;5052211;28;20066;-63
2022/09/17 00:47:59;;;;;;;4.72;1.60;;;12.20;99.90;;;;;;5052752;28;20044;-64
2022/09/17 00:50:34;;;;;;;6.95;1.20;;;12.30;99.90;;;;;;5051300;28;20048;-64
2022/09/17 00:53:09;;;;;;;3.90;1.27;;;12.40;99.90;;;;;;5052235;28;20029;-64
2022/09/17 00:56:05;;;;;;;5.70;1.10;;;12.30;99.90;;;;;;5053655;28;20090;-64
2022/09/17 00:58:37;;;;;;;2.85;1.13;;;12.40;99.90;;;;;;5051904;28;20089;-64
2022/09/17 01:01:04;;;;;;;5.13;1.50;;;12.30;99.90;;;;;;5052161;28;20049;-64
2022/09/17 01:03:32;;;;;;;8.52;1.67;;;12.30;99.90;;;;;;5052427;28;20033;-64
2022/09/17 01:06:16;;;;;;;2.45;1.20;;;12.30;99.90;;;;;;5053293;28;20419;-64
2022/09/17 01:09:07;;;;;;;1.92;1.13;;;12.40;99.90;;;;;;5050819;28;20033;-64
2022/09/17 01:12:11;;;;;;;4.15;1.30;;;12.30;99.90;;;;;;5052087;28;20493;-63
2022/09/17 01:15:03;;;;;;;2.38;1.33;;;12.10;99.90;;;;;;5028296;28;20065;-65
2022/09/17 01:17:50;;;;;;;5.50;1.30;;;11.40;99.90;;;;;;5051817;28;20040;-65
2022/09/17 01:20:30;;;;;;;2.30;1.30;;;10.90;99.90;;;;;;5051670;28;20029;-65
2022/09/17 01:23:33;;;;;;;6.20;1.13;;;10.70;99.90;;;;;;5050781;28;20071;-64
2022/09/17 01:26:25;;;;;;;6.10;1.38;;;10.70;99.90;;;;;;5051632;28;20045;-64
2022/09/17 01:29:10;;;;;;;3.65;1.30;;;10.60;99.90;;;;;;5053667;28;20043;-64
2022/09/17 01:32:08;;;;;;;6.05;1.40;;;10.50;99.90;;;;;;5054682;28;20129;-64
2022/09/17 01:35:04;;;;;;;2.72;1.35;;;10.50;99.90;;;;;;5040314;28;20044;-65
2022/09/17 01:37:46;;;;;;;1.83;1.00;;;10.70;99.90;;;;;;5051243;28;20039;-74
2022/09/17 01:40:23;;;;;;;1.27;0.80;;;10.50;99.90;;;;;;5056453;28;20462;-73
2022/09/17 01:43:11;;;;;;;3.33;1.25;;;10.50;99.90;;;;;;5057627;28;20041;-71
2022/09/17 01:45:59;;;;;;;1.95;0.85;;;10.50;99.90;;;;;;5057408;28;21020;-71
2022/09/17 01:48:30;;;;;;;2.53;1.00;;;10.50;99.90;;;;;;5056980;28;20463;-66
2022/09/17 01:51:05;;;;;;;2.50;1.02;;;10.70;99.90;;;;;;5056486;28;20041;-66
2022/09/17 01:53:44;;;;;;;1.50;0.85;;;10.80;99.90;;;;;;5056796;28;20083;-66
2022/09/17 01:56:15;;;;;;;5.25;1.38;;;11.00;99.90;;;;;;5056611;28;20040;-66
2022/09/17 01:58:46;;;;;;;;;;;11.00;99.90;;;;;;5057148;28;20052;-74
2022/09/17 02:01:16;;;;;;;3.63;1.13;;;10.90;99.90;;;;;;5056353;28;19943;-74
2022/09/17 02:03:53;;;;;;;1.30;0.88;;;11.00;99.90;;;;;;5053919;28;20037;-64
2022/09/17 02:06:28;;;;;;;1.92;1.20;;;11.00;99.90;;;;;;5055311;28;20056;-74
2022/09/17 02:09:00;;;;;;;2.55;0.90;;;11.00;99.90;;;;;;5057151;28;20048;-65
2022/09/17 02:11:27;;;;;;;2.88;1.20;;;10.90;99.90;;;;;;5056988;28;20076;-65
2022/09/17 02:13:58;;;;;;;1.92;0.95;;;10.90;99.90;;;;;;5057640;28;20036;-65
2022/09/17 02:16:43;;;;;;;2.10;1.20;;;10.90;99.90;;;;;;5055467;28;20466;-73
2022/09/17 02:19:23;;;;;;;1.30;1.08;;;10.90;99.90;;;;;;5056923;28;20055;-74
2022/09/17 02:22:01;;;;;;;5.07;0.88;;;10.90;99.90;;;;;;5056801;28;20117;-65
2022/09/17 02:24:56;;;;;;;1.73;1.10;;;10.90;99.90;;;;;;5056638;28;20131;-65
2022/09/17 02:27:25;;;;;;;2.58;1.10;;;10.80;99.90;;;;;;5037884;28;20045;-65
2022/09/17 02:29:51;;;;;;;1.98;0.88;;;10.80;99.90;;;;;;5056500;28;20099;-74
2022/09/17 02:32:17;;;;;;;3.60;1.25;;;10.80;99.90;;;;;;5056569;28;20044;-68
2022/09/17 02:34:43;;;;;;;4.60;1.42;;;10.60;99.90;;;;;;5056691;28;20496;-65
2022/09/17 02:37:10;;;;;;;1.50;0.80;;;10.80;99.90;;;;;;5056402;28;20485;-65
2022/09/17 02:39:35;;;;;;;2.95;0.90;;;10.80;99.90;;;;;;5056462;28;20511;-66
2022/09/17 02:42:34;;;;;;;1.60;1.08;;;10.70;99.90;;;;;;5056240;28;20041;-65
2022/09/17 02:45:12;;;;;;;4.35;0.82;;;10.60;99.90;;;;;;5052545;28;20052;-68
2022/09/17 02:47:47;;;;;;;2.60;0.77;;;10.60;99.90;;;;;;5052282;28;20125;-67
2022/09/17 02:50:25;;;;;;;1.02;0.90;;;10.50;99.90;;;;;;5052487;28;20047;-67
2022/09/17 02:53:05;;;;;;;1.77;1.02;;;10.60;99.90;;;;;;5053544;28;20036;-66
2022/09/17 02:55:49;;;;;;;5.90;1.27;;;10.50;99.90;;;;;;5051762;28;20040;-67
2022/09/17 02:58:42;;;;;;;2.53;0.93;;;10.60;99.90;;;;;;5050420;28;20051;-67
2022/09/17 03:01:18;;;;;;;2.50;0.95;;;10.50;99.90;;;;;;5050040;28;20044;-66
2022/09/17 03:03:49;;;;;;;2.45;1.00;;;10.40;99.90;;;;;;5053288;28;20098;-65
2022/09/17 03:06:16;;;;;;;0.73;0.65;;;10.40;99.90;;;;;;5053946;28;20087;-66
2022/09/17 03:08:42;;;;;;;5.15;2.42;;;10.40;99.90;;;;;;5054505;28;20040;-66
2022/09/17 03:11:11;;;;;;;1.20;0.82;;;10.40;99.90;;;;;;5052700;28;20526;-66
2022/09/17 03:13:37;;;;;;;2.08;0.70;;;10.40;99.90;;;;;;5053877;28;20543;-66
2022/09/17 03:16:04;;;;;;;1.35;0.88;;;10.30;99.90;;;;;;5046350;28;20143;-67
2022/09/17 03:18:31;;;;;;;1.40;0.77;;;10.40;99.90;;;;;;5039208;28;20040;-66
2022/09/17 03:20:57;;;;;;;1.90;0.68;;;10.20;99.90;;;;;;5051514;28;20523;-66
2022/09/17 03:23:23;;;;;;;3.25;1.23;;;10.20;99.90;;;;;;5054033;28;20045;-78
2022/09/17 03:25:49;;;;;;;2.53;0.93;;;10.20;99.90;;;;;;5055554;28;20438;-73
2022/09/17 03:28:15;;;;;;;1.25;0.80;;;10.20;99.90;;;;;;5055615;28;20120;-66
2022/09/17 03:30:45;;;;;;;1.33;0.70;;;10.20;99.90;;;;;;5055420;28;20048;-66
2022/09/17 03:33:11;;;;;;;1.98;0.80;;;10.20;99.90;;;;;;5052491;28;20098;-71
2022/09/17 03:35:37;;;;;;;0.80;0.52;;;10.10;99.90;;;;;;5053294;28;20073;-68
2022/09/17 03:38:03;;;;;;;1.05;0.80;;;10.20;99.90;;;;;;5053169;28;20508;-66
2022/09/17 03:40:29;;;;;;;1.23;0.90;;;10.10;99.90;;;;;;5053384;28;20025;-69
2022/09/17 03:42:55;;;;;;;1.02;0.60;;;10.20;99.90;;;;;;5053158;28;20399;-67
2022/09/17 03:45:21;;;;;;;2.85;0.70;;;10.10;99.90;;;;;;5054515;28;20048;-67
2022/09/17 03:47:46;;;;;;;1.40;0.77;;;10.00;99.90;;;;;;5053816;28;20049;-72
2022/09/17 03:50:12;;;;;;;3.38;1.00;;;10.00;99.90;;;;;;5054979;28;20048;-66
2022/09/17 03:52:38;;;;;;;1.98;0.65;;;10.20;99.90;;;;;;5054512;28;20037;-72
2022/09/17 03:55:04;;;;;;;1.20;0.85;;;10.20;99.90;;;;;;5053426;28;20090;-66
2022/09/17 03:57:30;;;;;;;1.60;0.70;;;10.20;99.90;;;;;;5054072;28;20041;-65
2022/09/17 03:59:56;;;;;;;1.08;0.55;;;10.20;99.90;;;;;;5052775;28;20028;-65
2022/09/17 04:02:21;;;;;;;0.95;0.55;;;10.20;99.90;;;;;;5054510;28;20029;-77
2022/09/17 04:04:47;;;;;;;4.32;1.20;;;10.20;99.90;;;;;;5054421;28;20045;-65
2022/09/17 04:07:13;;;;;;;2.63;1.20;;;10.20;99.90;;;;;;5052601;28;20179;-75
2022/09/17 04:09:39;;;;;;;1.50;0.50;;;10.30;99.90;;;;;;5051684;28;20072;-76
2022/09/17 04:12:05;;;;;;;1.88;1.02;;;10.20;99.90;;;;;;5052645;28;20040;-66
2022/09/17 04:14:31;;;;;;;0.50;0.50;;;10.20;99.90;;;;;;5052632;28;20036;-65
2022/09/17 04:16:57;;;;;;;2.00;0.70;;;10.10;99.90;;;;;;5051060;28;20081;-65
2022/09/17 04:19:23;;;;;;;1.65;0.80;;;10.00;99.90;;;;;;5052359;28;20400;-65
2022/09/17 04:21:49;;;;;;;1.13;0.65;;;10.00;99.90;;;;;;5051267;28;20044;-76
2022/09/17 04:24:15;;;;;;;2.20;0.68;;;10.10;99.90;;;;;;5052254;28;20484;-74
2022/09/17 04:26:41;;;;;;;1.08;0.70;;;10.00;99.90;;;;;;5047111;28;20037;-70
2022/09/17 04:29:07;;;;;;;2.30;0.90;;;10.00;99.90;;;;;;5044556;28;20048;-76
2022/09/17 04:31:33;;;;;;;0.65;0.47;;;10.00;99.90;;;;;;5042824;28;20052;-76
2022/09/17 04:33:58;;;;;;;3.13;0.63;;;9.90;99.90;;;;;;5032037;28;20385;-77
2022/09/17 04:36:24;;;;;;;2.30;0.70;;;9.70;99.90;;;;;;5032264;28;20096;-75
2022/09/17 04:38:50;;;;;;;1.10;0.70;;;9.70;99.90;;;;;;5032571;28;20037;-76
2022/09/17 04:41:16;;;;;;;0.80;0.55;;;9.60;99.90;;;;;;5032195;28;20052;-71
2022/09/17 04:43:42;;;;;;;5.78;0.70;;;9.60;99.90;;;;;;5033481;28;20041;-75
2022/09/17 04:46:08;;;;;;;2.45;0.93;;;9.50;99.90;;;;;;5034149;28;20187;-76
2022/09/17 04:48:33;;;;;;;2.10;0.68;;;9.50;99.90;;;;;;5033688;28;20033;-76
2022/09/17 04:50:59;;;;;;;0.82;0.70;;;9.50;99.90;;;;;;5031740;28;20041;-65
2022/09/17 04:53:25;;;;;;;1.15;0.77;;;9.40;99.90;;;;;;5030429;28;20060;-65
2022/09/17 04:55:51;;;;;;;2.92;1.08;;;9.30;99.90;;;;;;5039905;28;20033;-65
2022/09/17 04:58:17;;;;;;;1.38;0.70;;;9.30;99.90;;;;;;5050537;28;20048;-76
2022/09/17 05:00:42;;;;;;;4.40;0.70;;;9.50;99.90;;;;;;5049652;28;20045;-65
2022/09/17 05:03:08;;;;;;;3.20;0.88;;;9.40;99.90;;;;;;5051340;28;20037;-70
2022/09/17 05:05:34;;;;;;;1.67;0.70;;;9.40;99.90;;;;;;5051306;28;20421;-65
2022/09/17 05:08:00;;;;;;;1.95;0.70;;;9.30;99.90;;;;;;5051629;28;20036;-67
2022/09/17 05:10:26;;;;;;;3.53;1.05;;;9.40;99.90;;;;;;5051892;28;20467;-66
2022/09/17 05:12:54;;;;;;;0.88;0.70;;;9.40;99.90;;;;;;5051115;28;20041;-65
2022/09/17 05:15:20;;;;;;;1.83;0.65;;;9.40;99.90;;;;;;5066408;28;20053;-73
2022/09/17 05:17:46;;;;;;;3.05;0.68;;;9.40;99.90;;;;;;5050895;28;20100;-71
2022/09/17 05:20:13;;;;;;;1.23;0.60;;;9.40;99.90;;;;;;5051234;28;20045;-65
2022/09/17 05:22:48;;;;;;;1.95;0.75;;;9.40;99.90;;;;;;5052799;28;20041;-74
2022/09/17 05:25:15;;;;;;;5.00;0.75;;;9.50;99.90;;;;;;5051473;28;20057;-76
2022/09/17 05:27:45;;;;;;;11.73;0.90;;;9.30;99.90;;;;;;5051718;28;20036;-66
2022/09/17 05:30:11;;;;;;;1.23;0.45;;;9.30;99.90;;;;;;5051253;28;20041;-76
2022/09/17 05:32:39;;;;;;;5.68;0.60;;;9.30;99.90;;;;;;5052333;28;20033;-75
2022/09/17 05:35:06;;;;;;;0.75;0.40;;;9.40;99.90;;;;;;5051067;28;20127;-65
2022/09/17 05:37:32;;;;;;;2.33;0.63;;;9.40;99.90;;;;;;5048235;28;20060;-65
2022/09/17 05:39:58;;;;;;;4.88;0.63;;;9.50;99.90;;;;;;5032684;28;20045;-72
2022/09/17 05:42:24;;;;;;;0.73;0.40;;;9.40;99.90;;;;;;5040533;28;20241;-65
2022/09/17 05:44:50;;;;;;;0.73;0.47;;;9.50;99.90;;;;;;5051709;28;20088;-76
2022/09/17 05:47:16;;;;;;;0.63;0.30;;;9.50;99.90;;;;;;5051063;28;20511;-64
2022/09/17 05:49:41;;;;;;;0.98;0.45;;;9.50;99.90;;;;;;5051367;28;20488;-75
2022/09/17 05:52:07;;;;;;;0.30;0.20;;;9.40;99.90;;;;;;5049247;28;20544;-65
2022/09/17 05:54:33;;;;;;;1.83;0.60;;;9.40;99.90;;;;;;5047627;28;20116;-65
2022/09/17 05:57:00;;;;;;;2.30;0.60;;;9.50;99.90;;;;;;5051263;28;20187;-71
2022/09/17 05:59:26;;;;;;;3.15;0.32;;;9.50;99.90;;;;;;5051237;28;20037;-65
2022/09/17 06:01:52;;;;;;;0.65;0.30;;;9.60;99.90;;;;;;5051496;28;20064;-66
2022/09/17 06:04:18;;;;;;;1.75;0.30;;;9.40;99.90;;;;;;5069891;28;20044;-66
2022/09/17 06:06:44;;;;;;;0.30;0.30;;;9.40;99.90;;;;;;5070446;28;20185;-65
2022/09/17 06:09:10;;;;;;;0.30;0.20;;;9.50;99.90;;;;;;5070330;28;20549;-76
2022/09/17 06:11:37;;;;;;;0.32;0.20;;;9.50;99.90;;;;;;5071143;28;20102;-65
2022/09/17 06:14:03;;;;;;;3.03;0.40;;;9.70;99.90;;;;;;5070775;28;20029;-65
2022/09/17 06:16:29;;;;;;;0.88;0.32;;;9.60;99.90;;;;;;5070776;28;20595;-69
2022/09/17 06:18:55;;;;;;;0.38;0.20;;;9.60;99.90;;;;;;5074315;28;20111;-65
2022/09/17 06:21:22;;;;;;;1.90;0.50;;;9.90;99.90;;;;;;5075342;28;20047;-66
2022/09/17 06:23:49;;;;;;;1.52;0.60;;;10.30;99.90;;;;;;5074166;28;20029;-73
2022/09/17 06:26:15;;;;;;;3.97;0.38;;;10.80;99.90;;;;;;5074474;28;20050;-66
2022/09/17 06:28:41;;;;;;;2.20;0.30;;;11.10;99.90;;;;;;5074245;28;20048;-69
2022/09/17 06:31:09;;;;;;;0.68;0.32;;;11.20;99.90;;;;;;5071121;28;20040;-75
2022/09/17 06:33:35;;;;;;;0.85;0.50;;;11.00;99.90;;;;;;5062154;28;20043;-69
2022/09/17 06:36:06;;;;;;;0.43;0.32;;;10.80;99.90;;;;;;5054070;28;20045;-66
2022/09/17 06:38:34;;;;;;;2.92;0.38;;;10.70;99.90;;;;;;5053666;28;20397;-65
2022/09/17 06:41:01;;;;;;;0.98;0.22;;;10.70;99.90;;;;;;5053735;28;20041;-72
2022/09/17 06:43:27;;;;;;;1.70;0.38;;;11.30;99.90;;;;;;5054214;28;20064;-70
2022/09/17 06:45:54;;;;;;;1.75;0.40;;;11.70;99.90;;;;;;5054317;28;20404;-65
2022/09/17 06:48:20;;;;;;;3.17;0.40;;;11.60;99.90;;;;;;5054771;28;20121;-66
2022/09/17 06:50:46;;;;;;;2.83;0.40;;;11.00;99.90;;;;;;5054379;28;20044;-66
2022/09/17 06:53:12;;;;;;;3.00;0.20;;;10.90;99.90;;;;;;5053391;28;20047;-66
2022/09/17 06:55:38;;;;;;;1.85;0.10;;;10.90;99.90;;;;;;5054128;28;20029;-76
2022/09/17 06:58:04;;;;;;;1.90;0.30;;;10.90;99.90;;;;;;5053954;28;20051;-65
2022/09/17 07:00:30;;;;;;;3.35;0.20;;;10.90;99.90;;;;;;5054137;28;20040;-66
2022/09/17 07:02:57;;;;;;;1.00;0.30;;;11.30;99.90;;;;;;5052621;28;20051;-65
2022/09/17 07:05:23;;;;;;;0.73;0.30;;;11.00;99.90;;;;;;5054300;28;20049;-65
2022/09/17 07:07:49;;;;;;;3.15;0.30;;;10.90;99.90;;;;;;5053799;28;20167;-73
2022/09/17 07:10:16;;;;;;;0.30;0.28;;;11.40;99.90;;;;;;5055368;28;20484;-67
2022/09/17 07:12:42;;;;;;;0.32;0.20;;;11.10;99.90;;;;;;5054011;28;20517;-65
2022/09/17 07:15:12;;;;;;;2.65;0.30;;;11.30;99.90;;;;;;5054421;28;20080;-65
2022/09/17 07:17:39;;;;;;;3.60;0.40;;;11.70;99.90;;;;;;5053935;28;20059;-75
2022/09/17 07:20:08;;;;;;;1.75;0.30;;;11.40;99.90;;;;;;5053543;28;20056;-65
2022/09/17 07:22:35;;;;;;;1.15;0.30;;;11.40;99.90;;;;;;5053276;28;20045;-65
2022/09/17 07:25:00;;;;;;;0.65;0.30;;;11.30;99.90;;;;;;5053510;28;20052;-66
2022/09/17 07:27:28;;;;;;;1.13;0.13;;;11.70;99.90;;;;;;5053266;28;20041;-65
2022/09/17 07:29:54;;;;;;;0.70;0.20;;;12.00;99.90;;;;;;5051642;28;20037;-65
2022/09/17 07:32:20;;;;;;;1.08;0.32;;;12.00;99.90;;;;;;5053857;28;20072;-67
2022/09/17 07:34:46;;;;;;;0.57;0.30;;;12.10;99.90;;;;;;5052683;28;20037;-65
2022/09/17 07:37:12;;;;;;;1.30;0.20;;;12.20;99.90;;;;;;5052862;28;20106;-65
2022/09/17 07:39:37;;;;;;;0.93;0.30;;;12.60;99.90;;;;;;5053603;28;20408;-66
2022/09/17 07:42:03;;;;;;;1.05;0.20;;;12.20;99.90;;;;;;5053308;28;20084;-65
2022/09/17 07:44:30;;;;;;;1.98;0.25;;;12.20;99.90;;;;;;5053353;28;20132;-65
2022/09/17 07:46:56;;;;;;;0.88;0.40;;;12.00;99.90;;;;;;5053285;28;20041;-65
2022/09/17 07:49:21;;;;;;;0.38;0.30;;;11.70;99.90;;;;;;5053623;28;20512;-66
2022/09/17 07:51:47;;;;;;;0.85;0.35;;;11.70;99.90;;;;;;5052672;28;20039;-65
2022/09/17 07:54:13;;;;;;;0.75;0.22;;;12.20;99.90;;;;;;5054861;28;20052;-65
2022/09/17 07:56:39;;;;;;;1.55;0.30;;;12.00;99.90;;;;;;5054208;28;20484;-66
2022/09/17 07:59:04;;;;;;;0.65;0.28;;;11.50;99.90;;;;;;5052560;28;20040;-65
2022/09/17 08:01:33;;;;;;;0.88;0.20;;;11.80;99.90;;;;;;5053644;28;20131;-65
2022/09/17 08:03:59;;;;;;;1.98;0.47;;;11.90;99.90;;;;;;5062018;28;20404;-65
2022/09/17 08:06:29;;;;;;;1.90;0.47;;;11.50;99.90;;;;;;5072179;28;20056;-65
2022/09/17 08:08:57;;;;;;;3.70;0.50;;;11.30;99.90;;;;;;5072403;28;20058;-64
2022/09/17 08:11:26;;;;;;;0.52;0.35;;;11.50;99.90;;;;;;5073042;28;20550;-65
2022/09/17 08:13:53;;;;;;;3.50;0.57;;;11.90;99.90;;;;;;5056114;28;20037;-65
2022/09/17 08:16:22;;;;;;;2.22;0.30;;;11.80;99.90;;;;;;5053324;28;20033;-65
2022/09/17 08:18:53;;;;;;;5.85;0.30;;;11.70;99.90;;;;;;5052727;28;20076;-64
2022/09/17 08:21:19;;;;;;;0.35;0.25;;;11.80;99.90;;;;;;5053779;28;20041;-65
2022/09/17 08:23:45;;;;;;;4.50;0.40;;;12.10;99.90;;;;;;5052687;28;20416;-66
2022/09/17 08:26:17;;;;;;;1.88;0.30;;;11.90;99.90;;;;;;5051038;28;20048;-65
2022/09/17 08:28:48;;;;;;;2.85;0.45;;;12.10;99.90;;;;;;5052526;28;20569;-65
2022/09/17 08:31:15;;;;;;;0.43;0.20;;;11.80;99.90;;;;;;5052113;28;20044;-65
2022/09/17 08:33:41;;;;;;;0.73;0.28;;;12.20;99.90;;;;;;5053224;28;20041;-68
2022/09/17 08:36:09;;;;;;;2.08;0.50;;;12.00;99.90;;;;;;5051305;28;20048;-66
2022/09/17 08:38:36;;;;;;;1.42;0.13;;;11.70;99.90;;;;;;5052221;28;20041;-64
2022/09/17 08:41:20;;;;;;;0.95;0.30;;;12.00;99.90;;;;;;5053383;28;20408;-65
2022/09/17 08:44:00;;;;;;;2.20;0.40;;;12.30;99.90;;;;;;5054309;28;20064;-64
2022/09/17 08:46:27;;;;;;;1.55;0.30;;;12.00;99.90;;;;;;5054028;28;20049;-64
2022/09/17 08:49:20;;;;;;;1.55;0.40;;;12.30;99.90;;;;;;5067734;28;20037;-65
2022/09/17 08:52:04;;;;;;;2.80;0.40;;;12.30;99.90;;;;;;5051484;28;20423;-64
2022/09/17 08:54:59;;;;;;;1.80;0.32;;;12.20;99.90;;;;;;5052114;28;20044;-65
2022/09/17 08:57:27;;;;;;;0.38;0.20;;;12.30;99.90;;;;;;5051690;28;20439;-65
2022/09/17 09:00:04;;;;;;;1.30;0.25;;;12.40;99.90;;;;;;5051682;28;20041;-65
2022/09/17 09:03:09;;;;;;;0.95;0.40;;;12.60;99.90;;;;;;5052187;28;20036;-65
2022/09/17 09:05:46;;;;;;;3.53;0.40;;;12.70;99.90;;;;;;5051358;28;20393;-65
2022/09/17 09:08:18;;;;;;;0.47;0.30;;;12.70;99.90;;;;;;5051756;28;20120;-64
2022/09/17 09:10:56;;;;;;;0.95;0.32;;;13.20;99.90;;;;;;5051977;28;20416;-64
2022/09/17 09:13:27;;;;;;;2.38;0.32;;;12.80;99.90;;;;;;5052307;28;20045;-65
2022/09/17 09:16:09;;;;;;;4.38;0.75;;;13.00;99.90;;;;;;5051796;28;20043;-65
2022/09/17 09:18:39;;;;;;;2.78;0.47;;;12.80;99.90;;;;;;5051774;28;20042;-64
2022/09/17 09:21:25;;;;;;;5.78;0.22;;;12.40;99.90;;;;;;5048870;28;20511;-70
2022/09/17 09:24:13;;;;;;;2.50;0.43;;;12.10;99.90;;;;;;5064606;28;20043;-65
2022/09/17 09:27:04;;;;;;;1.25;0.32;;;12.50;99.90;;;;;;5051202;28;20099;-64
2022/09/17 09:29:37;;;;;;;1.17;0.30;;;;;;;;;;5051545;28;20041;-64
2022/09/17 09:32:40;;;;;;;1.30;0.35;;;13.10;99.90;;;;;;5052140;28;20051;-64
2022/09/17 09:35:26;;;;;;;2.38;0.30;;;13.10;99.90;;;;;;5033292;28;20044;-64
2022/09/17 09:38:15;;;;;;;2.35;0.30;;;13.00;99.90;;;;;;5051917;28;20514;-64
2022/09/17 09:41:14;;;;;;;3.97;0.30;;;12.90;99.90;;;;;;5051095;28;20041;-67
2022/09/17 09:43:44;;;;;;;3.40;0.40;;;13.20;99.90;;;;;;5050295;28;20037;-64
2022/09/17 09:46:55;;;;;;;4.47;0.50;;;13.20;99.90;;;;;;5049983;28;20143;-64
2022/09/17 09:49:29;;;;;;;3.25;0.50;;;12.90;99.90;;;;;;5048820;28;20037;-64
2022/09/17 09:51:56;;;;;;;3.85;0.40;;;;;;;;;;5051973;28;20040;-64
2022/09/17 09:54:27;;;;;;;1.58;0.60;;;13.30;99.90;;;;;;5055294;28;20040;-64
2022/09/17 09:56:57;;;;;;;2.00;0.40;;;13.60;99.90;;;;;;5053456;28;20037;-64
2022/09/17 09:59:24;;;;;;;2.40;0.30;;;13.10;99.90;;;;;;5055177;28;20105;-64
2022/09/17 10:01:50;;;;;;;1.80;0.40;;;13.00;99.90;;;;;;5055665;28;20051;-66
2022/09/17 10:04:23;;;;;;;3.95;0.40;;;13.30;99.90;;;;;;5056577;28;20041;-64
2022/09/17 10:06:52;;;;;;;2.25;0.38;;;13.00;99.90;;;;;;5055158;28;20071;-64
2022/09/17 10:09:20;;;;;;;0.82;0.20;;;12.40;99.90;;;;;;5054770;28;20033;-64
2022/09/17 10:12:03;;;;;;;0.30;0.10;;;12.90;99.90;;;;;;5054989;28;20041;-65
2022/09/17 10:14:31;;;;;;;0.22;0.13;;;13.60;99.90;;;;;;5054701;28;20087;-65
2022/09/17 10:17:18;;;;;;;1.80;0.50;;;13.80;99.90;;;;;;5054744;28;20550;-64
2022/09/17 10:19:45;;;;;;;1.92;0.30;;;13.80;99.90;;;;;;5054022;28;20047;-67
2022/09/17 10:22:29;;;;;;;2.42;0.32;;;13.50;99.90;;;;;;5052801;28;20075;-64
2022/09/17 10:24:58;;;;;;;1.75;0.45;;;13.60;99.90;;;;;;5045249;28;20077;-64
2022/09/17 10:27:24;;;;;;;1.08;0.43;;;13.60;99.90;;;;;;5054676;28;20038;-64
2022/09/17 10:30:03;;;;;;;1.35;0.20;;;13.30;99.90;;;;;;5054909;28;20040;-66
2022/09/17 10:32:29;;;;;;;0.22;0.10;;;13.30;99.90;;;;;;5054196;28;20037;-64
2022/09/17 10:34:58;;;;;;;5.85;0.52;;;13.60;99.90;;;;;;5053527;28;20036;-64
2022/09/17 10:37:54;;;;;;;3.40;0.40;;;13.90;99.90;;;;;;5054648;28;20114;-64
2022/09/17 10:40:19;;;;;;;1.58;0.40;;;13.50;99.90;;;;;;5040593;28;20460;-65
2022/09/17 10:42:49;;;;;;;2.10;0.30;;;14.00;99.90;;;;;;5054155;28;20136;-65
2022/09/17 10:45:27;;;;;;;1.33;0.40;;;13.90;99.90;;;;;;5054194;28;20057;-64
2022/09/17 10:47:58;;;;;;;2.05;0.40;;;13.50;99.90;;;;;;5055006;28;20039;-64
2022/09/17 10:50:30;;;;;;;2.63;0.28;;;13.20;99.90;;;;;;5066679;28;20044;-64
2022/09/17 10:53:04;;;;;;;0.47;0.20;;;13.00;99.90;;;;;;5074129;28;20067;-64
2022/09/17 10:55:42;;;;;;;3.95;0.30;;;12.90;99.90;;;;;;5074348;28;20036;-67
2022/09/17 10:58:39;;;;;;;0.75;0.20;;;13.30;99.90;;;;;;5059455;28;20041;-65
2022/09/17 11:01:25;;;;;;;0.57;0.20;;;14.20;99.90;;;;;;5051900;28;20072;-64
2022/09/17 11:04:13;;;;;;;0.57;0.25;;;14.20;99.90;;;;;;5053667;28;20510;-65
2022/09/17 11:06:48;;;;;;;5.25;0.25;;;15.00;99.90;;;;;;5051795;28;20496;-64
2022/09/17 11:09:29;;;;;;;8.75;0.43;;;13.80;99.90;;;;;;5053204;28;20036;-65
2022/09/17 11:12:01;;;;;;;0.80;0.10;;;13.40;99.90;;;;;;5052843;28;20048;-66
2022/09/17 11:14:55;;;;;;;0.98;0.20;;;13.20;99.90;;;;;;5053242;28;20033;-65
2022/09/17 11:17:39;;;;;;;2.53;0.32;;;13.30;99.90;;;;;;5052781;28;20484;-66
2022/09/17 11:20:49;;;;;;;0.75;0.20;;;13.90;99.90;;;;;;5052774;28;20047;-66
2022/09/17 11:23:37;;;;;;;1.27;0.22;;;14.10;99.90;;;;;;5053391;28;20041;-64
2022/09/17 11:26:11;;;;;;;1.80;0.30;;;14.50;99.90;;;;;;5069680;28;20147;-65
2022/09/17 11:28:59;;;;;;;6.50;0.73;;;14.20;99.90;;;;;;5055102;28;20039;-65
2022/09/17 11:31:53;;;;;;;1.05;0.10;;;14.00;99.90;;;;;;5053189;28;20136;-65
2022/09/17 11:34:41;;;;;;;0.73;0.20;;;13.90;99.90;;;;;;5054081;28;20041;-65
2022/09/17 11:37:27;;;;;;;1.30;0.40;;;13.70;99.90;;;;;;5052238;28;20045;-73
2022/09/17 11:39:53;;;;;;;1.25;0.43;;;13.70;99.90;;;;;;5055782;28;20041;-65
2022/09/17 11:42:29;;;;;;;3.30;0.40;;;13.40;99.90;;;;;;5055371;28;20048;-69
2022/09/17 11:45:17;;;;;;;0.28;0.10;;;13.10;99.90;;;;;;5055164;28;20051;-65
2022/09/17 11:48:16;;;;;;;0.57;0.20;;;14.00;99.90;;;;;;5054893;28;20041;-65
2022/09/17 11:51:05;;;;;;;0.93;0.20;;;13.70;99.90;;;;;;5054927;28;20025;-65
2022/09/17 11:53:36;;;;;;;2.05;0.47;;;13.30;99.90;;;;;;5054696;28;20047;-67
2022/09/17 11:56:32;;;;;;;4.50;0.50;;;13.40;99.90;;;;;;5052044;28;20119;-65
2022/09/17 11:59:08;;;;;;;2.25;0.57;;;13.40;99.90;;;;;;5050039;28;20048;-74
2022/09/17 12:01:49;;;;;;;1.75;0.30;;;13.80;99.90;;;;;;5052401;28;20515;-77
2022/09/17 12:04:33;;;;;;;;;;;13.60;99.90;;;;;;5053081;28;20040;-65
2022/09/17 12:07:22;;;;;;;4.00;0.40;;;13.50;99.90;;;;;;5052205;28;19987;-75
2022/09/17 12:09:55;;;;;;;1.20;0.30;;;13.50;99.90;;;;;;5053083;28;20037;-73
2022/09/17 12:12:24;;;;;;;2.17;0.30;;;13.50;99.90;;;;;;5052651;28;20048;-75
2022/09/17 12:15:06;;;;;;;0.88;0.25;;;13.70;99.90;;;;;;5052448;28;20500;-74
2022/09/17 12:17:48;;;;;;;1.13;0.30;;;13.30;99.90;;;;;;5053191;28;20053;-70
2022/09/17 12:20:35;;;;;;;0.95;0.30;;;13.20;99.90;;;;;;5054020;28;20021;-65
2022/09/17 12:23:09;;;;;;;0.65;0.30;;;13.40;99.90;;;;;;5052143;28;20033;-75
2022/09/17 12:26:00;;;;;;;0.63;0.20;;;13.40;99.90;;;;;;5051996;28;20127;-64
2022/09/17 12:28:39;;;;;;;0.77;0.35;;;13.40;99.90;;;;;;5054145;28;20120;-64
2022/09/17 12:31:25;;;;;;;1.92;0.68;;;13.30;99.90;;;;;;5052850;28;20048;-65
2022/09/17 12:34:00;;;;;;;1.33;0.35;;;13.50;99.90;;;;;;5052796;28;20048;-65
2022/09/17 12:37:03;;;;;;;0.40;0.20;;;13.40;99.90;;;;;;5054154;28;20049;-65
2022/09/17 12:39:34;;;;;;;1.70;0.40;;;13.50;99.90;;;;;;5052823;28;20492;-65
2022/09/17 12:42:16;;;;;;;1.00;0.40;;;13.30;99.90;;;;;;5053442;28;20430;-76
2022/09/17 12:45:30;;;;;;;1.13;0.40;;;13.40;99.90;;;;;;5054263;28;20071;-66
2022/09/17 12:48:31;;;;;;;0.65;0.30;;;14.00;99.90;;;;;;5040842;28;20462;-65
2022/09/17 12:51:16;;;;;;;1.90;0.20;;;13.90;99.90;;;;;;5024934;28;20457;-65
2022/09/17 12:53:45;;;;;;;1.02;0.17;;;14.90;99.90;;;;;;5053833;28;20123;-64
2022/09/17 12:57:05;;;;;;;3.67;0.43;;;14.20;99.80;;;;;;5053884;28;20040;-65
2022/09/17 12:59:32;;;;;;;2.08;0.30;;;;;;;;;;5007795;28;20053;-65
2022/09/17 13:02:18;;;;;;;1.08;0.22;;;15.10;99.90;;;;;;5048440;28;20488;-64
2022/09/17 13:04:50;;;;;;;0.85;0.20;;;14.30;99.90;;;;;;5051152;28;20045;-64
2022/09/17 13:07:34;;;;;;;2.35;0.45;;;13.90;99.90;;;;;;5053588;28;20041;-64
2022/09/17 13:10:21;;;;;;;1.65;0.20;;;13.80;99.90;;;;;;5052528;28;20052;-64
2022/09/17 13:13:09;;;;;;;3.42;0.30;;;13.80;99.90;;;;;;5051331;28;20508;-63
2022/09/17 13:15:38;;;;;;;0.82;0.32;;;13.80;99.90;;;;;;5052007;28;20040;-64
2022/09/17 13:18:16;;;;;;;0.10;0.10;;;13.70;99.90;;;;;;5051474;28;20476;-64
2022/09/17 13:21:07;;;;;;;0.70;0.20;;;13.70;99.90;;;;;;5052075;28;20044;-64
2022/09/17 13:23:38;;;;;;;0.40;0.20;;;13.60;99.90;;;;;;5051523;28;20504;-64